createdAt,value
2018-12-14T00:00:11.641Z,18.67
2018-12-14T00:02:41.260Z,19.10
2018-12-14T00:05:13.080Z,19.33
2018-12-14T00:07:44.679Z,19.30
2018-12-14T00:10:14.252Z,18.10
2018-12-14T00:12:43.770Z,17.77
2018-12-14T00:15:13.728Z,17.53
2018-12-14T00:17:43.407Z,18.43
2018-12-14T00:20:13.083Z,18.00
2018-12-14T00:22:42.865Z,26.68
2018-12-14T00:25:12.892Z,17.67
2018-12-14T00:27:42.964Z,17.30
2018-12-14T00:30:12.670Z,17.90
2018-12-14T00:32:42.356Z,17.77
2018-12-14T00:35:13.551Z,16.97
2018-12-14T00:37:43.446Z,19.90
2018-12-14T00:40:13.229Z,18.47
2018-12-14T00:42:42.762Z,16.70
2018-12-14T00:45:12.239Z,16.53
2018-12-14T00:47:41.872Z,15.53
2018-12-14T00:50:11.572Z,15.83
2018-12-14T00:52:41.404Z,16.40
2018-12-14T00:55:11.593Z,15.80
2018-12-14T00:57:41.161Z,16.90
2018-12-14T01:00:11.646Z,15.73
2018-12-14T01:02:41.356Z,15.17
2018-12-14T01:05:11.694Z,16.43
2018-12-14T01:07:41.521Z,16.83
2018-12-14T01:10:11.108Z,16.60
2018-12-14T01:12:40.864Z,16.23
2018-12-14T01:15:10.418Z,20.00
2018-12-14T01:17:40.055Z,15.17
2018-12-14T01:20:10.506Z,16.20
2018-12-14T01:22:40.169Z,15.53
2018-12-14T01:25:09.995Z,15.73
2018-12-14T01:27:39.649Z,15.60
2018-12-14T01:30:09.709Z,14.70
2018-12-14T01:32:39.482Z,14.27
2018-12-14T01:35:09.147Z,12.93
2018-12-14T01:37:39.905Z,14.57
2018-12-14T01:40:09.594Z,13.77
2018-12-14T01:42:39.073Z,13.63
2018-12-14T01:45:08.745Z,14.13
2018-12-14T01:47:38.774Z,14.53
2018-12-14T01:50:08.423Z,14.30
2018-12-14T01:52:38.462Z,14.23
2018-12-14T01:55:08.187Z,13.00
2018-12-14T01:57:38.216Z,13.77
2018-12-14T02:00:07.844Z,13.07
2018-12-14T02:02:38.234Z,14.90
2018-12-14T02:05:07.798Z,13.47
2018-12-14T02:07:37.515Z,13.47
2018-12-14T02:10:07.145Z,13.70
2018-12-14T02:12:36.815Z,13.03
2018-12-14T02:15:06.964Z,13.00
2018-12-14T02:17:36.495Z,13.67
2018-12-14T02:20:06.463Z,13.47
2018-12-14T02:22:36.706Z,12.77
2018-12-14T02:25:06.556Z,17.25
2018-12-14T02:27:36.406Z,12.33
2018-12-14T02:30:16.896Z,14.50
2018-12-14T02:32:46.553Z,13.80
2018-12-14T02:35:16.707Z,16.83
2018-12-14T02:37:46.611Z,16.07
2018-12-14T02:40:16.254Z,17.23
2018-12-14T02:42:45.923Z,15.40
2018-12-14T02:45:15.656Z,13.70
2018-12-14T02:47:45.491Z,12.97
2018-12-14T02:50:15.296Z,13.97
2018-12-14T02:52:44.910Z,13.17
2018-12-14T02:55:14.486Z,14.37
2018-12-14T02:57:44.326Z,9.93
2018-12-14T03:00:14.193Z,11.57
2018-12-14T03:02:45.991Z,13.93
2018-12-14T03:05:15.528Z,14.63
2018-12-14T03:07:45.215Z,11.63
2018-12-14T03:10:15.028Z,11.07
2018-12-14T03:12:44.781Z,13.33
2018-12-14T03:15:14.761Z,13.20
2018-12-14T03:17:45.092Z,12.80
2018-12-14T03:20:15.017Z,12.67
2018-12-14T03:22:44.642Z,12.00
2018-12-14T03:25:14.525Z,14.37
2018-12-14T03:27:44.463Z,13.00
2018-12-14T03:30:14.146Z,15.10
2018-12-14T03:32:43.455Z,15.57
2018-12-14T03:35:13.251Z,13.47
2018-12-14T03:37:43.344Z,13.37
2018-12-14T03:40:13.073Z,13.13
2018-12-14T03:42:42.912Z,11.87
2018-12-14T03:45:12.640Z,13.37
2018-12-14T03:47:42.556Z,11.53
2018-12-14T03:50:12.449Z,14.33
2018-12-14T03:52:42.080Z,11.93
2018-12-14T03:55:11.741Z,11.43
2018-12-14T03:57:41.251Z,19.02
2018-12-14T04:00:11.124Z,15.77
2018-12-14T04:02:40.776Z,15.07
2018-12-14T04:05:10.525Z,15.30
2018-12-14T04:07:40.215Z,15.23
2018-12-14T04:10:09.816Z,16.10
2018-12-14T04:12:41.836Z,14.63
2018-12-14T04:15:11.152Z,16.10
2018-12-14T04:17:40.998Z,15.77
2018-12-14T04:20:10.606Z,16.17
2018-12-14T04:22:40.244Z,16.17
2018-12-14T04:25:09.919Z,16.10
2018-12-14T04:27:39.407Z,15.53
2018-12-14T04:30:09.250Z,16.80
2018-12-14T04:32:38.980Z,15.63
2018-12-14T04:35:09.054Z,13.77
2018-12-14T04:37:38.584Z,17.60
2018-12-14T04:40:08.813Z,15.57
2018-12-14T04:42:38.667Z,15.23
2018-12-14T04:45:09.123Z,16.17
2018-12-14T04:47:39.063Z,16.63
2018-12-14T04:50:08.728Z,16.63
2018-12-14T04:52:38.653Z,17.57
2018-12-14T04:55:08.286Z,15.67
2018-12-14T04:57:38.006Z,17.63
2018-12-14T05:00:08.146Z,19.47
2018-12-14T05:02:37.843Z,17.43
2018-12-14T05:05:07.835Z,18.03
2018-12-14T05:07:37.376Z,17.23
2018-12-14T05:10:07.159Z,18.03
2018-12-14T05:12:36.823Z,20.37
2018-12-14T05:15:07.009Z,17.67
2018-12-14T05:17:36.783Z,19.63
2018-12-14T05:20:06.638Z,18.07
2018-12-14T05:22:36.243Z,16.30
2018-12-14T05:25:06.387Z,18.13
2018-12-14T05:27:35.971Z,18.10
2018-12-14T05:30:06.393Z,20.13
2018-12-14T05:32:36.117Z,18.53
2018-12-14T05:35:06.189Z,18.17
2018-12-14T05:37:36.565Z,16.70
2018-12-14T05:40:06.548Z,17.70
2018-12-14T05:42:36.041Z,17.87
2018-12-14T05:45:06.110Z,19.17
2018-12-14T05:47:35.753Z,27.25
2018-12-14T05:50:06.197Z,22.33
2018-12-14T05:52:35.836Z,17.57
2018-12-14T05:55:05.764Z,18.47
2018-12-14T05:57:37.614Z,17.60
2018-12-14T06:00:10.165Z,17.83
2018-12-14T06:02:40.041Z,21.77
2018-12-14T06:05:09.759Z,18.77
2018-12-14T06:07:39.299Z,18.33
2018-12-14T06:10:09.548Z,16.97
2018-12-14T06:12:39.471Z,18.77
2018-12-14T06:15:09.453Z,19.13
2018-12-14T06:17:38.959Z,16.57
2018-12-14T06:20:09.110Z,16.33
2018-12-14T06:22:38.626Z,19.53
2018-12-14T06:25:08.314Z,19.53
2018-12-14T06:27:38.056Z,18.97
2018-12-14T06:30:08.048Z,17.07
2018-12-14T06:32:37.765Z,18.33
2018-12-14T06:35:07.443Z,17.30
2018-12-14T06:37:37.112Z,18.63
2018-12-14T06:40:07.087Z,18.67
2018-12-14T06:42:36.513Z,20.40
2018-12-14T06:45:07.042Z,17.93
2018-12-14T06:47:36.882Z,17.30
2018-12-14T06:50:06.533Z,17.60
2018-12-14T06:52:36.288Z,18.70
2018-12-14T06:55:06.379Z,19.33
2018-12-14T06:57:36.305Z,23.47
2018-12-14T07:00:07.016Z,20.57
2018-12-14T07:02:36.757Z,17.43
2018-12-14T07:08:07.099Z,17.33
2018-12-14T07:10:36.821Z,17.40
2018-12-14T07:13:06.484Z,19.33
2018-12-14T07:15:36.619Z,17.00
2018-12-14T07:18:06.369Z,19.93
2018-12-14T07:20:36.364Z,20.30
2018-12-14T07:23:05.985Z,17.97
2018-12-14T07:25:35.438Z,17.00
2018-12-14T07:28:05.284Z,16.63
2018-12-14T07:30:35.067Z,16.77
2018-12-14T07:33:04.463Z,17.90
2018-12-14T07:35:34.201Z,17.03
2018-12-14T07:38:03.784Z,17.87
2018-12-14T07:40:33.314Z,19.40
2018-12-14T07:43:02.922Z,16.47
2018-12-14T07:45:32.616Z,17.90
2018-12-14T07:48:02.141Z,16.30
2018-12-14T07:50:31.623Z,17.30
2018-12-14T07:53:00.943Z,26.50
2018-12-14T07:55:30.434Z,19.93
2018-12-14T07:57:59.984Z,17.80
2018-12-14T08:00:30.408Z,17.20
2018-12-14T08:02:59.964Z,15.00
2018-12-14T08:05:29.577Z,14.37
2018-12-14T08:07:59.083Z,19.67
2018-12-14T08:10:28.520Z,20.40
2018-12-14T08:12:58.356Z,19.70
2018-12-14T08:15:28.747Z,19.17
2018-12-14T08:17:58.260Z,17.30
2018-12-14T08:20:27.689Z,16.13
2018-12-14T08:22:57.371Z,17.23
2018-12-14T08:25:27.059Z,17.43
2018-12-14T08:27:56.560Z,18.77
2018-12-14T08:30:26.479Z,16.93
2018-12-14T08:32:56.034Z,24.30
2018-12-14T08:35:25.377Z,19.23
2018-12-14T08:38:00.420Z,19.83
2018-12-14T08:40:29.917Z,18.37
2018-12-14T08:42:59.524Z,17.07
2018-12-14T08:45:29.079Z,17.47
2018-12-14T08:47:58.869Z,23.70
2018-12-14T08:50:28.358Z,22.10
2018-12-14T08:52:57.975Z,17.77
2018-12-14T08:55:27.594Z,19.93
2018-12-14T08:57:57.125Z,18.40
2018-12-14T09:00:26.718Z,18.57
2018-12-14T09:02:56.197Z,17.33
2018-12-14T09:05:25.805Z,19.20
2018-12-14T09:07:55.426Z,19.40
2018-12-14T09:10:26.035Z,20.37
2018-12-14T09:12:55.563Z,17.50
2018-12-14T09:15:25.111Z,19.53
2018-12-14T09:17:54.714Z,22.40
2018-12-14T09:20:24.182Z,19.97
2018-12-14T09:22:53.902Z,19.70
2018-12-14T09:25:23.683Z,21.43
2018-12-14T09:27:53.200Z,19.43
2018-12-14T09:30:22.759Z,19.73
2018-12-14T09:32:52.336Z,17.70
2018-12-14T09:35:21.952Z,17.63
2018-12-14T09:37:51.652Z,20.90
2018-12-14T09:40:21.547Z,21.00
2018-12-14T09:42:51.834Z,17.60
2018-12-14T09:45:22.600Z,20.17
2018-12-14T09:47:52.164Z,18.67
2018-12-14T09:50:21.611Z,20.67
2018-12-14T09:52:51.129Z,22.20
2018-12-14T09:55:20.627Z,20.03
2018-12-14T09:57:50.129Z,21.03
2018-12-14T10:00:19.589Z,21.40
2018-12-14T10:02:48.946Z,17.60
2018-12-14T10:05:18.588Z,21.63
2018-12-14T10:07:48.056Z,21.57
2018-12-14T10:10:18.195Z,19.23
2018-12-14T10:12:48.628Z,19.23
2018-12-14T10:15:18.143Z,19.03
2018-12-14T10:17:47.402Z,18.03
2018-12-14T10:20:16.931Z,23.62
2018-12-14T10:22:46.355Z,29.98
2018-12-14T10:25:16.020Z,25.37
2018-12-14T10:27:45.435Z,23.00
2018-12-14T10:30:15.168Z,21.77
2018-12-14T10:32:44.643Z,20.57
2018-12-14T10:35:15.299Z,22.23
2018-12-14T10:37:44.778Z,32.65
2018-12-14T10:40:14.659Z,24.50
2018-12-14T10:42:44.208Z,22.07
2018-12-14T10:45:13.813Z,20.03
2018-12-14T10:47:43.443Z,20.67
2018-12-14T10:50:13.047Z,21.47
2018-12-14T10:52:42.648Z,19.33
2018-12-14T10:55:12.148Z,19.53
2018-12-14T10:57:42.003Z,22.67
2018-12-14T11:00:19.064Z,18.50
2018-12-14T11:02:48.494Z,19.27
2018-12-14T11:05:18.371Z,18.27
2018-12-14T11:07:48.426Z,20.50
2018-12-14T11:10:17.802Z,22.37
2018-12-14T11:12:47.397Z,20.60
2018-12-14T11:15:17.334Z,20.12
2018-12-14T11:17:46.927Z,19.43
2018-12-14T11:20:16.375Z,22.63
2018-12-14T11:22:46.288Z,22.03
2018-12-14T11:25:16.413Z,20.03
2018-12-14T11:27:45.867Z,19.47
2018-12-14T11:30:15.285Z,18.60
2018-12-14T11:32:44.928Z,28.25
2018-12-14T11:35:14.391Z,25.93
2018-12-14T11:37:43.887Z,23.10
2018-12-14T11:40:13.478Z,20.07
2018-12-14T11:42:43.106Z,19.03
2018-12-14T11:45:12.964Z,21.17
2018-12-14T11:47:42.571Z,22.67
2018-12-14T11:50:12.622Z,22.30
2018-12-14T11:52:42.335Z,23.17
2018-12-14T11:55:11.842Z,21.83
2018-12-14T11:57:41.375Z,21.80
2018-12-14T12:00:13.283Z,20.47
2018-12-14T12:02:43.761Z,20.93
2018-12-14T12:05:13.239Z,20.23
2018-12-14T12:07:43.832Z,18.07
2018-12-14T12:10:13.486Z,18.77
2018-12-14T12:12:43.179Z,26.97
2018-12-14T12:15:13.722Z,25.23
2018-12-14T12:17:49.253Z,23.63
2018-12-14T12:20:15.085Z,22.60
2018-12-14T12:22:44.790Z,19.53
2018-12-14T12:25:14.575Z,16.17
2018-12-14T12:27:44.393Z,20.13
2018-12-14T12:30:13.940Z,26.80
2018-12-14T12:32:43.769Z,23.27
2018-12-14T12:35:13.508Z,22.20
2018-12-14T12:37:43.097Z,20.37
2018-12-14T12:40:12.892Z,18.50
2018-12-14T12:42:42.730Z,15.40
2018-12-14T12:45:12.478Z,15.43
2018-12-14T12:47:42.344Z,15.37
2018-12-14T12:50:12.212Z,15.97
2018-12-14T12:52:41.827Z,13.90
2018-12-14T12:55:11.489Z,15.30
2018-12-14T12:57:41.077Z,15.50
2018-12-14T13:00:11.756Z,15.17
2018-12-14T13:02:41.528Z,16.83
2018-12-14T13:05:11.866Z,17.87
2018-12-14T13:07:41.780Z,19.33
2018-12-14T13:10:11.331Z,14.97
2018-12-14T13:12:41.349Z,16.97
2018-12-14T13:15:11.140Z,28.07
2018-12-14T13:17:41.029Z,27.07
2018-12-14T13:20:10.678Z,34.23
2018-12-14T13:22:40.281Z,18.63
2018-12-14T13:25:10.153Z,16.97
2018-12-14T13:27:39.761Z,14.23
2018-12-14T13:30:09.435Z,12.07
2018-12-14T13:32:39.715Z,10.70
2018-12-14T13:35:09.335Z,13.23
2018-12-14T13:37:39.502Z,15.00
2018-12-14T13:40:09.434Z,15.00
2018-12-14T13:42:39.333Z,12.63
2018-12-14T13:45:08.975Z,12.40
2018-12-14T13:47:39.857Z,11.33
2018-12-14T13:50:09.261Z,12.60
2018-12-14T13:52:38.742Z,11.67
2018-12-14T13:55:08.539Z,11.90
2018-12-14T13:57:38.046Z,13.50
2018-12-14T14:00:08.084Z,13.77
2018-12-14T14:02:37.893Z,15.37
2018-12-14T14:05:07.580Z,14.33
2018-12-14T14:07:38.279Z,15.67
2018-12-14T14:10:07.701Z,16.10
2018-12-14T14:12:37.361Z,17.63
2018-12-14T14:15:08.359Z,16.87
2018-12-14T14:17:44.600Z,13.53
2018-12-14T14:20:14.151Z,13.67
2018-12-14T14:22:43.723Z,13.97
2018-12-14T14:25:17.417Z,15.77
2018-12-14T14:27:45.143Z,14.60
2018-12-14T14:30:14.745Z,14.00
2018-12-14T14:32:44.424Z,14.47
2018-12-14T14:35:13.827Z,12.33
2018-12-14T14:37:43.677Z,11.83
2018-12-14T14:40:13.347Z,14.10
2018-12-14T14:42:42.933Z,12.90
2018-12-14T14:45:12.756Z,13.47
2018-12-14T14:47:42.967Z,14.43
2018-12-14T14:50:12.814Z,16.33
2018-12-14T14:52:43.192Z,11.50
2018-12-14T14:55:12.878Z,14.37
2018-12-14T14:57:42.926Z,13.00
2018-12-14T15:00:12.691Z,14.83
2018-12-14T15:02:42.444Z,13.23
2018-12-14T15:05:12.207Z,12.90
2018-12-14T15:07:41.786Z,14.23
2018-12-14T15:10:11.555Z,11.73
2018-12-14T15:12:41.028Z,13.83
2018-12-14T15:15:11.879Z,14.23
2018-12-14T15:17:41.595Z,13.37
2018-12-14T15:20:11.392Z,14.30
2018-12-14T15:22:41.000Z,14.27
2018-12-14T15:25:10.578Z,13.47
2018-12-14T15:27:40.114Z,13.40
2018-12-14T15:30:10.180Z,12.40
2018-12-14T15:32:46.209Z,12.60
2018-12-14T15:35:15.951Z,11.80
2018-12-14T15:37:45.475Z,11.73
2018-12-14T15:40:15.012Z,15.60
2018-12-14T15:42:44.741Z,17.92
2018-12-14T15:45:14.424Z,20.60
2018-12-14T15:47:43.931Z,18.07
2018-12-14T15:50:13.756Z,12.70
2018-12-14T15:52:43.275Z,17.83
2018-12-14T15:55:13.265Z,17.03
2018-12-14T15:57:42.787Z,14.87
2018-12-14T16:00:12.536Z,21.40
2018-12-14T16:02:42.775Z,22.03
2018-12-14T16:05:12.452Z,16.63
2018-12-14T16:07:48.338Z,16.70
2018-12-14T16:10:17.873Z,16.97
2018-12-14T16:12:47.583Z,16.50
2018-12-14T16:15:23.264Z,18.30
2018-12-14T16:17:52.835Z,15.87
2018-12-14T16:20:22.600Z,16.97
2018-12-14T16:22:52.499Z,18.47
2018-12-14T16:25:22.338Z,17.67
2018-12-14T16:27:51.907Z,17.40
2018-12-14T16:30:22.030Z,18.13
2018-12-14T16:32:52.060Z,18.50
2018-12-14T16:35:21.839Z,19.57
2018-12-14T16:37:51.727Z,22.32
2018-12-14T16:40:22.033Z,20.93
2018-12-14T16:42:51.418Z,19.20
2018-12-14T16:45:26.405Z,19.80
2018-12-14T16:47:52.581Z,17.23
2018-12-14T16:50:22.487Z,18.97
2018-12-14T16:52:51.940Z,19.07
2018-12-14T16:55:21.472Z,20.50
2018-12-14T16:57:53.121Z,20.03
2018-12-14T17:00:22.642Z,18.70
2018-12-14T17:02:52.339Z,19.87
2018-12-14T17:05:22.155Z,19.40
2018-12-14T17:07:51.994Z,14.87
2018-12-14T17:10:21.914Z,16.27
2018-12-14T17:12:51.712Z,17.93
2018-12-14T17:15:21.444Z,18.03
2018-12-14T17:17:51.007Z,17.03
2018-12-14T17:20:20.983Z,16.27
2018-12-14T17:22:50.724Z,14.40
2018-12-14T17:25:20.359Z,14.47
2018-12-14T17:27:50.008Z,16.63
2018-12-14T17:30:19.877Z,15.13
2018-12-14T17:32:49.700Z,17.00
2018-12-14T17:35:19.227Z,15.90
2018-12-14T17:37:50.868Z,18.23
2018-12-14T17:40:20.558Z,18.47
2018-12-14T17:42:52.486Z,23.35
2018-12-14T17:45:22.829Z,23.10
2018-12-14T17:47:52.475Z,19.20
2018-12-14T17:50:22.318Z,17.63
2018-12-14T17:52:52.159Z,17.73
2018-12-14T17:55:21.681Z,22.07
2018-12-14T17:57:51.615Z,24.60
2018-12-14T18:00:21.416Z,18.50
2018-12-14T18:02:51.185Z,17.97
2018-12-14T18:05:21.263Z,16.50
2018-12-14T18:07:50.881Z,19.33
2018-12-14T18:10:20.825Z,18.87
2018-12-14T18:12:50.567Z,17.30
2018-12-14T18:15:20.229Z,16.33
2018-12-14T18:17:49.944Z,16.07
2018-12-14T18:20:19.623Z,14.23
2018-12-14T18:22:49.898Z,13.37
2018-12-14T18:25:19.854Z,18.40
2018-12-14T18:27:49.685Z,15.57
2018-12-14T18:30:19.282Z,14.23
2018-12-14T18:32:48.900Z,20.88
2018-12-14T18:35:18.526Z,20.07
2018-12-14T18:37:48.492Z,17.13
2018-12-14T18:40:18.322Z,16.27
2018-12-14T18:42:48.029Z,15.37
2018-12-14T18:45:17.805Z,13.67
2018-12-14T18:47:47.526Z,15.57
2018-12-14T18:50:17.519Z,17.50
2018-12-14T18:52:47.111Z,18.00
2018-12-14T18:55:16.806Z,15.27
2018-12-14T18:57:46.519Z,17.60
2018-12-14T19:00:16.273Z,21.13
2018-12-14T19:02:46.164Z,19.27
2018-12-14T19:05:15.903Z,21.57
2018-12-14T19:07:45.521Z,22.47
2018-12-14T19:10:15.366Z,18.47
2018-12-14T19:12:45.070Z,19.30
2018-12-14T19:15:14.937Z,17.17
2018-12-14T19:17:44.693Z,17.07
2018-12-14T19:20:14.206Z,23.42
2018-12-14T19:22:43.851Z,20.90
2018-12-14T19:25:13.409Z,17.83
2018-12-14T19:27:44.205Z,14.53
2018-12-14T19:30:14.794Z,16.63
2018-12-14T19:32:44.105Z,16.60
2018-12-14T19:35:13.500Z,16.30
2018-12-14T19:37:43.149Z,15.33
2018-12-14T19:40:13.349Z,18.43
2018-12-14T19:42:43.314Z,16.47
2018-12-14T19:45:13.048Z,16.67
2018-12-14T19:47:42.907Z,17.67
2018-12-14T19:50:12.740Z,17.43
2018-12-14T19:52:42.391Z,15.43
2018-12-14T19:55:12.232Z,20.25
2018-12-14T19:57:41.945Z,21.73
2018-12-14T20:00:12.391Z,19.07
2018-12-14T20:02:42.490Z,17.87
2018-12-14T20:05:12.172Z,18.30
2018-12-14T20:07:41.739Z,17.13
2018-12-14T20:10:12.313Z,23.65
2018-12-14T20:12:41.977Z,21.57
2018-12-14T20:15:11.731Z,17.90
2018-12-14T20:17:41.897Z,18.60
2018-12-14T20:20:11.480Z,18.03
2018-12-14T20:22:41.191Z,18.80
2018-12-14T20:25:10.806Z,16.27
2018-12-14T20:27:40.644Z,18.70
2018-12-14T20:30:10.535Z,19.70
2018-12-14T20:32:41.271Z,17.67
2018-12-14T20:35:11.244Z,18.63
2018-12-14T20:37:41.975Z,58.33
2018-12-14T20:40:12.295Z,39.40
2018-12-14T20:42:41.914Z,46.05
2018-12-14T20:45:11.703Z,30.07
2018-12-14T20:47:41.268Z,25.53
2018-12-14T20:50:11.016Z,23.97
2018-12-14T20:52:40.832Z,21.13
2018-12-14T20:55:10.939Z,20.90
2018-12-14T20:57:41.605Z,28.63
2018-12-14T21:00:12.576Z,27.60
2018-12-14T21:02:42.251Z,24.70
2018-12-14T21:05:12.015Z,22.93
2018-12-14T21:07:41.714Z,22.33
2018-12-14T21:10:43.999Z,23.70
2018-12-14T21:13:13.782Z,24.47
2018-12-14T21:15:43.604Z,21.87
2018-12-14T21:18:13.639Z,20.03
2018-12-14T21:23:15.195Z,23.40
2018-12-14T21:25:45.117Z,54.63
2018-12-14T21:28:16.290Z,58.47
2018-12-14T21:33:20.491Z,32.27
2018-12-14T21:38:21.698Z,22.50
2018-12-14T21:40:51.376Z,21.83
2018-12-14T21:43:21.041Z,21.30
2018-12-14T21:45:50.699Z,30.65
2018-12-14T21:48:20.322Z,28.07
2018-12-14T21:53:24.619Z,22.03
2018-12-14T21:55:54.305Z,23.47
2018-12-14T21:58:24.394Z,24.37
2018-12-14T22:00:54.053Z,24.80
2018-12-14T22:03:23.791Z,21.80
2018-12-14T22:05:53.625Z,25.93
2018-12-14T22:08:23.386Z,24.57
2018-12-14T22:13:25.643Z,23.93
2018-12-14T22:15:55.898Z,30.30
2018-12-14T22:18:25.619Z,24.07
2018-12-14T22:20:55.405Z,24.80
2018-12-14T22:25:57.617Z,22.87
2018-12-14T22:28:28.484Z,20.73
2018-12-14T22:30:58.488Z,31.73
2018-12-14T22:33:29.776Z,66.53
2018-12-14T22:35:59.626Z,59.10
2018-12-14T22:38:30.039Z,48.27
2018-12-14T22:41:00.139Z,31.60
2018-12-14T22:43:29.680Z,33.98
2018-12-14T22:45:59.210Z,28.27
2018-12-14T22:48:28.840Z,24.47
2018-12-14T22:53:31.540Z,25.33
2018-12-14T22:56:01.302Z,24.87
2018-12-14T22:58:31.309Z,23.80
2018-12-14T23:01:01.370Z,23.63
2018-12-14T23:03:33.511Z,22.33
2018-12-14T23:06:02.996Z,72.85
2018-12-14T23:08:32.549Z,124.53
2018-12-14T23:11:02.131Z,44.47
2018-12-14T23:13:31.682Z,29.17
2018-12-14T23:16:01.347Z,30.77
2018-12-14T23:18:31.302Z,25.23
2018-12-14T23:21:01.161Z,24.57
2018-12-14T23:26:05.555Z,31.43
2018-12-14T23:28:35.009Z,25.67
2018-12-14T23:31:05.142Z,25.53
2018-12-14T23:33:34.769Z,25.37
2018-12-14T23:36:04.466Z,22.93
2018-12-14T23:38:34.242Z,22.83
2018-12-14T23:41:04.740Z,21.13
2018-12-14T23:43:34.409Z,20.57
2018-12-14T23:46:03.917Z,21.97
2018-12-14T23:48:33.554Z,21.93
2018-12-14T23:51:03.135Z,23.23
2018-12-14T23:53:32.609Z,22.87
2018-12-14T23:56:02.472Z,23.40
2018-12-14T23:58:32.030Z,29.92
